Time;durP1;ratioP1;P1;durP2;ratioP2;P2;SDS_P1;SDS_P2;PMS_P1;PMS_P2;Temp;Humidity;BMP_temperature;BMP_pressure;BME280_temperature;BME280_humidity;BME280_pressure;Samples;Min_cycle;Max_cycle;Signal;HPM_P1;HPM_P2
2022/01/24 00:00:11;;;;;;;24.35;14.20;;;6.10;99.90;;;;;;5053701;28;20045;-67
2022/01/24 00:02:37;;;;;;;23.27;13.75;;;6.00;99.90;;;;;;5053063;28;20115;-67
2022/01/24 00:05:04;;;;;;;25.98;14.68;;;6.10;99.90;;;;;;5053570;28;20129;-67
2022/01/24 00:07:31;;;;;;;23.33;12.73;;;6.00;99.90;;;;;;5053259;28;20128;-68
2022/01/24 00:09:59;;;;;;;24.50;14.68;;;6.10;99.90;;;;;;5053258;28;20132;-67
2022/01/24 00:17:48;;;;;;;28.13;14.93;;;6.00;99.90;;;;;;5053350;28;20040;-68
2022/01/24 00:28:25;;;;;;;25.55;14.90;;;6.10;99.90;;;;;;5052976;28;20045;-66
2022/01/24 00:30:51;;;;;;;22.48;13.50;;;6.10;99.90;;;;;;5052901;28;20040;-67
2022/01/24 00:33:19;;;;;;;25.75;14.55;;;6.10;99.90;;;;;;5052926;28;20409;-67
2022/01/24 00:35:45;;;;;;;25.23;14.90;;;6.10;99.90;;;;;;5035131;28;20056;-67
2022/01/24 00:38:11;;;;;;;25.63;14.43;;;6.00;99.90;;;;;;5053153;28;20068;-67
2022/01/24 00:40:39;;;;;;;27.15;14.23;;;6.10;99.90;;;;;;5052678;28;20069;-67
2022/01/24 00:43:17;;;;;;;24.98;14.18;;;6.10;99.90;;;;;;5052610;28;20037;-68
2022/01/24 00:53:38;;;;;;;21.67;12.52;;;6.10;99.90;;;;;;5052192;28;20045;-67
2022/01/24 00:56:05;;;;;;;22.77;12.15;;;6.10;99.90;;;;;;5034640;28;20041;-67
2022/01/24 00:58:30;;;;;;;20.40;12.43;;;6.20;99.90;;;;;;5052168;28;20036;-67
2022/01/24 01:00:56;;;;;;;19.15;10.88;;;6.20;99.90;;;;;;5052301;28;20053;-67
2022/01/24 01:03:24;;;;;;;20.05;11.70;;;6.10;99.90;;;;;;5051730;28;20049;-67
2022/01/24 01:06:03;;;;;;;20.65;11.88;;;6.10;99.90;;;;;;5034118;28;20485;-67
2022/01/24 01:19:41;;;;;;;16.77;10.38;;;6.00;99.90;;;;;;5033974;28;20057;-67
2022/01/24 01:22:07;;;;;;;21.52;11.65;;;6.00;99.90;;;;;;5033525;28;20056;-67
2022/01/24 01:24:38;;;;;;;20.10;10.73;;;6.10;99.90;;;;;;5033690;28;20444;-67
2022/01/24 01:27:14;;;;;;;16.40;10.65;;;6.00;99.90;;;;;;5033707;28;20141;-67
2022/01/24 01:29:50;;;;;;;17.95;10.93;;;6.10;99.90;;;;;;5051905;28;20056;-67
2022/01/24 01:32:29;;;;;;;20.25;10.93;;;6.10;99.90;;;;;;5051540;28;20045;-67
2022/01/24 01:38:29;;;;;;;19.15;10.77;;;6.00;99.90;;;;;;5051539;28;20037;-67
2022/01/24 01:40:41;;;;;;;17.98;10.80;;;6.10;99.90;;;;;;5048452;28;20121;-67
2022/01/24 01:56:31;;;;;;;19.70;11.50;;;6.00;99.90;;;;;;5033821;28;20208;-67
2022/01/24 01:58:57;;;;;;;16.23;10.70;;;6.00;99.90;;;;;;5033777;28;20045;-67
2022/01/24 02:01:23;;;;;;;17.20;10.48;;;6.00;99.90;;;;;;5051642;28;20051;-67
2022/01/24 02:03:50;;;;;;;19.27;11.02;;;6.00;99.90;;;;;;5051056;28;20036;-67
2022/01/24 02:06:16;;;;;;;18.08;9.98;;;6.00;99.90;;;;;;5051479;28;20111;-67
2022/01/24 02:08:42;;;;;;;18.38;10.65;;;6.00;99.90;;;;;;5051269;28;20132;-67
2022/01/24 02:11:10;;;;;;;18.23;11.13;;;6.00;99.90;;;;;;5051633;28;20117;-67
2022/01/24 02:13:36;;;;;;;17.20;10.50;;;6.00;99.90;;;;;;5050925;28;20160;-67
2022/01/24 02:19:19;;;;;;;19.50;11.63;;;6.00;99.90;;;;;;5046282;28;20069;-67
2022/01/24 02:22:06;;;;;;;21.92;11.30;;;6.00;99.90;;;;;;5050849;28;20106;-67
2022/01/24 02:24:51;;;;;;;17.42;10.23;;;6.00;99.90;;;;;;5050948;28;20045;-67
2022/01/24 02:27:18;;;;;;;17.73;10.40;;;6.00;99.90;;;;;;5050866;28;20029;-67
2022/01/24 02:29:53;;;;;;;19.65;11.60;;;5.90;99.90;;;;;;5050412;28;20048;-67
2022/01/24 02:32:19;;;;;;;17.05;11.38;;;6.00;99.90;;;;;;5050572;28;20045;-67
2022/01/24 02:34:48;;;;;;;17.35;10.55;;;5.90;99.90;;;;;;5051126;28;20037;-67
2022/01/24 02:37:17;;;;;;;16.77;10.35;;;6.00;99.90;;;;;;5051145;28;20043;-67
2022/01/24 02:39:58;;;;;;;17.10;11.25;;;6.00;99.90;;;;;;5050819;28;20044;-67
2022/01/24 02:53:36;;;;;;;18.85;11.43;;;6.00;99.90;;;;;;5050228;28;20124;-67
2022/01/24 02:56:03;;;;;;;21.05;11.50;;;5.90;99.90;;;;;;5050791;28;20541;-67
2022/01/24 02:58:29;;;;;;;18.90;11.10;;;6.00;99.90;;;;;;5050527;28;20049;-67
2022/01/24 03:00:56;;;;;;;18.60;10.52;;;6.00;99.90;;;;;;5050605;28;20457;-67
2022/01/24 03:03:21;;;;;;;20.40;11.57;;;6.00;99.90;;;;;;5050571;28;20479;-67
2022/01/24 03:05:47;;;;;;;18.00;10.98;;;6.00;99.90;;;;;;5054410;28;20087;-67
2022/01/24 03:08:14;;;;;;;21.00;12.15;;;6.00;99.90;;;;;;5054462;28;20032;-67
2022/01/24 03:10:44;;;;;;;21.15;11.57;;;6.00;99.90;;;;;;5054138;28;20048;-67
2022/01/24 03:15:40;;;;;;;17.58;10.60;;;5.90;99.90;;;;;;5054139;28;20056;-67
2022/01/24 03:18:07;;;;;;;18.95;11.77;;;5.90;99.90;;;;;;5054239;28;20136;-67
2022/01/24 03:20:33;;;;;;;18.80;11.85;;;5.90;99.90;;;;;;5054038;28;20045;-67
2022/01/24 03:22:58;;;;;;;19.08;11.23;;;5.90;99.90;;;;;;5053596;28;20181;-67
2022/01/24 03:25:24;;;;;;;18.65;12.02;;;5.90;99.90;;;;;;5053762;28;20033;-67
2022/01/24 03:27:49;;;;;;;21.83;12.00;;;5.90;99.90;;;;;;5053676;28;20049;-67
2022/01/24 03:30:15;;;;;;;22.42;13.85;;;6.00;99.90;;;;;;5054127;28;20051;-67
2022/01/24 03:32:41;;;;;;;20.45;13.05;;;6.00;99.90;;;;;;5053824;28;20037;-68
2022/01/24 03:35:07;;;;;;;20.40;12.35;;;6.00;99.90;;;;;;5054115;28;20379;-67
2022/01/24 03:37:36;;;;;;;21.10;12.90;;;6.00;99.90;;;;;;5035889;28;20044;-67
2022/01/24 03:40:04;;;;;;;23.60;13.65;;;6.00;99.90;;;;;;5053680;28;20045;-67
2022/01/24 03:42:32;;;;;;;25.45;12.85;;;6.00;99.90;;;;;;5052174;28;20049;-67
2022/01/24 03:45:02;;;;;;;22.98;13.02;;;6.00;99.90;;;;;;5036091;28;20442;-67
2022/01/24 03:50:08;;;;;;;21.65;12.48;;;6.00;99.90;;;;;;5035589;28;20136;-68
2022/01/24 03:52:34;;;;;;;23.10;13.10;;;5.90;99.90;;;;;;5053277;28;20110;-67
2022/01/24 03:55:02;;;;;;;24.98;14.25;;;6.00;99.90;;;;;;5053464;28;20079;-67
2022/01/24 03:57:28;;;;;;;27.40;14.57;;;6.00;99.90;;;;;;5053590;28;20036;-67
2022/01/24 03:59:54;;;;;;;25.65;13.40;;;6.00;99.90;;;;;;5053453;28;20118;-67
2022/01/24 04:02:23;;;;;;;23.83;13.00;;;6.00;99.90;;;;;;5052654;28;20124;-67
2022/01/24 04:04:49;;;;;;;23.65;13.90;;;6.00;99.90;;;;;;5053291;28;20044;-67
2022/01/24 04:07:15;;;;;;;22.88;13.40;;;5.90;99.90;;;;;;5053073;28;20140;-67
2022/01/24 04:09:42;;;;;;;23.00;13.30;;;5.90;99.90;;;;;;5052851;28;20045;-67
2022/01/24 04:12:09;;;;;;;25.60;14.23;;;6.00;99.90;;;;;;5052859;28;20037;-67
2022/01/24 04:22:26;;;;;;;23.38;13.73;;;6.00;99.90;;;;;;5052509;28;20087;-67
2022/01/24 04:24:59;;;;;;;25.60;14.65;;;6.00;99.90;;;;;;5051497;28;20094;-67
2022/01/24 04:27:25;;;;;;;27.95;14.93;;;5.90;99.90;;;;;;5052667;28;20497;-67
2022/01/24 04:29:51;;;;;;;29.67;16.30;;;6.00;99.90;;;;;;5052870;28;20347;-67
2022/01/24 04:32:16;;;;;;;27.20;16.17;;;6.00;99.90;;;;;;5052455;28;20067;-68
2022/01/24 04:34:42;;;;;;;28.92;16.48;;;5.90;99.90;;;;;;5052555;28;20516;-67
2022/01/24 04:37:08;;;;;;;26.75;15.02;;;5.90;99.90;;;;;;5052502;28;20029;-67
2022/01/24 04:39:33;;;;;;;27.48;14.75;;;5.90;99.90;;;;;;5052431;28;20052;-67
2022/01/24 04:42:06;;;;;;;28.33;15.52;;;5.90;99.90;;;;;;5052484;28;20044;-67
2022/01/24 04:44:57;;;;;;;26.88;15.23;;;5.80;99.90;;;;;;5052778;28;20471;-67
2022/01/24 04:47:32;;;;;;;24.38;14.07;;;5.80;99.90;;;;;;5052678;28;20049;-67
2022/01/24 04:52:54;;;;;;;23.25;13.75;;;5.80;99.90;;;;;;5052127;28;20053;-67
2022/01/24 04:55:20;;;;;;;23.17;13.82;;;5.80;99.90;;;;;;5052520;28;20041;-68
2022/01/24 04:57:48;;;;;;;23.90;14.77;;;5.80;99.90;;;;;;5052422;28;20044;-67
2022/01/24 05:00:14;;;;;;;23.60;13.68;;;5.80;99.90;;;;;;5052250;28;20190;-68
2022/01/24 05:02:40;;;;;;;22.75;14.43;;;5.80;99.90;;;;;;5052185;28;20521;-67
2022/01/24 05:05:09;;;;;;;24.65;14.15;;;5.80;99.90;;;;;;5052355;28;20043;-67
2022/01/24 05:07:35;;;;;;;22.90;13.63;;;5.80;99.90;;;;;;5034214;28;20045;-67
2022/01/24 05:10:09;;;;;;;24.83;14.30;;;5.80;99.90;;;;;;5051805;28;20361;-67
2022/01/24 05:23:34;;;;;;;39.97;19.20;;;5.80;99.90;;;;;;5051343;28;20045;-67
2022/01/24 05:26:03;;;;;;;39.08;21.55;;;5.80;99.90;;;;;;5051815;28;20060;-67
2022/01/24 05:28:29;;;;;;;38.60;20.35;;;5.80;99.90;;;;;;5050676;28;20048;-67
2022/01/24 05:30:55;;;;;;;37.75;20.60;;;5.80;99.90;;;;;;5051647;28;20037;-67
2022/01/24 05:33:20;;;;;;;44.78;22.33;;;5.80;99.90;;;;;;5051262;28;20029;-67
2022/01/24 05:35:46;;;;;;;45.90;21.38;;;5.70;99.90;;;;;;5051479;28;20033;-67
2022/01/24 05:38:12;;;;;;;43.72;21.83;;;5.80;99.90;;;;;;5051755;28;20055;-67
2022/01/24 05:40:39;;;;;;;49.90;23.88;;;5.80;99.90;;;;;;5051697;28;20040;-67
2022/01/24 05:43:06;;;;;;;51.85;25.00;;;5.80;99.90;;;;;;5050953;28;20404;-67
2022/01/24 05:45:33;;;;;;;50.80;25.27;;;5.80;99.90;;;;;;5051379;28;20041;-67
2022/01/24 05:47:58;;;;;;;59.30;27.77;;;5.80;99.90;;;;;;5033565;28;20119;-67
2022/01/24 05:50:24;;;;;;;61.47;28.48;;;5.90;99.90;;;;;;5051290;28;20423;-67
2022/01/24 05:52:50;;;;;;;60.25;28.92;;;5.90;99.90;;;;;;5051230;28;20564;-67
2022/01/24 05:55:16;;;;;;;63.47;29.13;;;5.90;99.90;;;;;;5051415;28;20508;-67
2022/01/24 05:57:42;;;;;;;58.00;26.50;;;5.90;99.90;;;;;;5033220;28;20048;-67
2022/01/24 06:00:09;;;;;;;56.95;27.63;;;5.80;99.90;;;;;;5051303;28;20572;-67
2022/01/24 06:02:35;;;;;;;57.45;28.10;;;5.80;99.90;;;;;;5050864;28;20116;-67
2022/01/24 06:05:01;;;;;;;60.30;27.35;;;5.80;99.90;;;;;;5051022;28;20179;-67
2022/01/24 06:07:26;;;;;;;53.10;25.90;;;5.80;99.90;;;;;;5051101;28;20037;-67
2022/01/24 06:09:52;;;;;;;56.33;28.25;;;5.80;99.90;;;;;;5033229;28;20072;-68
2022/01/24 06:12:17;;;;;;;54.42;25.98;;;5.80;99.90;;;;;;5050844;28;20083;-67
2022/01/24 06:14:43;;;;;;;55.95;27.13;;;5.80;99.90;;;;;;5050862;28;20128;-67
2022/01/24 06:17:10;;;;;;;60.00;28.05;;;5.70;99.90;;;;;;5050824;28;20032;-67
2022/01/24 06:19:35;;;;;;;61.72;27.15;;;5.70;99.90;;;;;;5050780;28;20055;-67
2022/01/24 06:22:01;;;;;;;57.78;26.92;;;5.80;99.90;;;;;;5050874;28;20116;-67
2022/01/24 06:24:27;;;;;;;55.65;28.40;;;5.80;99.90;;;;;;5050676;28;20537;-68
2022/01/24 06:26:52;;;;;;;56.83;27.88;;;5.80;99.90;;;;;;5033033;28;20041;-67
2022/01/24 06:29:18;;;;;;;64.80;30.48;;;5.80;99.90;;;;;;5050538;28;20076;-67
2022/01/24 06:31:44;;;;;;;61.08;30.48;;;5.80;99.90;;;;;;5050438;28;20048;-67
2022/01/24 06:34:10;;;;;;;67.18;29.85;;;5.70;99.90;;;;;;5050286;28;20035;-67
2022/01/24 06:36:35;;;;;;;65.38;30.00;;;5.70;99.90;;;;;;5050812;28;20029;-67
2022/01/24 06:39:03;;;;;;;68.57;30.88;;;5.80;99.90;;;;;;5050316;28;20131;-67
2022/01/24 06:41:32;;;;;;;63.53;30.88;;;5.80;99.90;;;;;;5032617;28;20089;-67
2022/01/24 06:43:58;;;;;;;59.67;29.08;;;5.70;99.90;;;;;;5050049;28;20147;-67
2022/01/24 06:46:24;;;;;;;59.53;28.20;;;5.70;99.90;;;;;;5051012;28;20139;-67
2022/01/24 06:48:50;;;;;;;69.22;30.55;;;5.80;99.90;;;;;;5050502;28;20098;-67
2022/01/24 06:51:17;;;;;;;66.57;30.33;;;5.70;99.90;;;;;;5050553;28;20044;-67
2022/01/24 06:53:43;;;;;;;67.10;31.48;;;5.70;99.90;;;;;;5049934;28;20422;-67
2022/01/24 06:56:09;;;;;;;62.25;27.88;;;5.80;99.90;;;;;;5032487;28;20037;-67
2022/01/24 06:58:35;;;;;;;60.80;29.42;;;5.70;99.90;;;;;;5050350;28;20033;-67
2022/01/24 07:01:01;;;;;;;61.08;30.33;;;5.70;99.90;;;;;;5032309;28;20048;-67
2022/01/24 07:03:27;;;;;;;66.70;30.63;;;5.70;99.90;;;;;;5031930;28;20045;-67
2022/01/24 07:05:53;;;;;;;65.35;32.70;;;5.70;99.90;;;;;;5032227;28;20037;-67
2022/01/24 07:08:18;;;;;;;66.60;31.40;;;5.70;99.90;;;;;;5032226;28;20041;-68
2022/01/24 07:10:44;;;;;;;70.72;32.55;;;5.70;99.90;;;;;;5032023;28;20068;-67
2022/01/24 07:13:10;;;;;;;67.03;32.15;;;5.70;99.90;;;;;;5049533;28;20056;-67
2022/01/24 07:15:45;;;;;;;71.50;32.72;;;5.70;99.90;;;;;;5050066;28;20037;-67
2022/01/24 07:18:57;;;;;;;70.15;33.78;;;5.70;99.90;;;;;;5050376;28;20198;-67
2022/01/24 07:21:06;;;;;;;67.05;33.35;;;5.70;99.90;;;;;;5049895;28;20170;-67
2022/01/24 07:23:33;;;;;;;68.43;33.05;;;5.70;99.90;;;;;;5049579;28;20044;-67
2022/01/24 07:25:59;;;;;;;66.25;31.30;;;5.70;99.90;;;;;;5061997;28;20536;-67
2022/01/24 07:28:24;;;;;;;70.30;34.35;;;5.70;99.90;;;;;;5070032;28;20044;-67
2022/01/24 07:30:50;;;;;;;70.28;34.40;;;5.70;99.90;;;;;;5069889;28;20080;-67
2022/01/24 07:33:16;;;;;;;65.15;32.85;;;5.70;99.90;;;;;;5051682;28;20041;-68
2022/01/24 07:35:43;;;;;;;76.50;33.40;;;5.70;99.90;;;;;;5070404;28;20048;-67
2022/01/24 07:38:09;;;;;;;75.30;35.63;;;5.70;99.90;;;;;;5052207;28;20124;-67
2022/01/24 07:40:39;;;;;;;71.25;32.85;;;5.70;99.90;;;;;;5069970;28;20093;-67
2022/01/24 07:43:12;;;;;;;74.85;35.83;;;5.80;99.90;;;;;;5049807;28;20052;-68
2022/01/24 07:45:44;;;;;;;71.00;34.28;;;5.70;99.90;;;;;;5066840;28;20083;-67
2022/01/24 07:48:10;;;;;;;74.70;34.85;;;5.70;99.90;;;;;;5066765;28;20047;-67
2022/01/24 07:50:40;;;;;;;70.43;33.92;;;5.70;99.90;;;;;;5066997;28;20049;-67
2022/01/24 07:53:07;;;;;;;79.97;36.88;;;5.70;99.90;;;;;;5072683;28;20097;-67
2022/01/24 07:55:33;;;;;;;76.03;36.83;;;5.70;99.90;;;;;;5056003;28;20040;-67
2022/01/24 07:57:59;;;;;;;81.45;37.80;;;5.70;99.90;;;;;;5073044;28;20041;-67
2022/01/24 08:00:25;;;;;;;82.10;37.40;;;5.70;99.90;;;;;;5055033;28;20052;-67
2022/01/24 08:02:50;;;;;;;82.15;38.97;;;5.70;99.90;;;;;;5072390;28;20524;-66
2022/01/24 08:05:16;;;;;;;81.20;37.30;;;5.70;99.90;;;;;;5072854;28;20116;-67
2022/01/24 08:07:42;;;;;;;77.65;38.50;;;5.70;99.90;;;;;;5054202;28;20558;-67
2022/01/24 08:10:09;;;;;;;78.88;38.65;;;5.70;99.90;;;;;;5072542;28;20033;-67
2022/01/24 08:12:35;;;;;;;93.90;44.45;;;5.70;99.90;;;;;;5054719;28;20527;-67
2022/01/24 08:15:06;;;;;;;88.97;44.30;;;5.70;99.90;;;;;;5055310;28;20119;-67
2022/01/24 08:17:31;;;;;;;90.35;42.90;;;5.70;99.90;;;;;;5055120;28;20045;-67
2022/01/24 08:19:58;;;;;;;84.57;41.58;;;5.70;99.90;;;;;;5055159;28;20106;-68
2022/01/24 08:22:24;;;;;;;83.80;39.38;;;5.70;99.90;;;;;;5072624;28;20044;-67
2022/01/24 08:24:51;;;;;;;83.05;40.40;;;5.70;99.90;;;;;;5054737;28;20075;-70
2022/01/24 08:27:18;;;;;;;80.50;36.45;;;5.70;99.90;;;;;;5072814;28;20112;-70
2022/01/24 08:29:45;;;;;;;81.55;36.88;;;5.70;99.90;;;;;;5054826;28;20037;-70
2022/01/24 08:32:11;;;;;;;79.97;37.38;;;5.70;99.90;;;;;;5054762;28;20048;-70
2022/01/24 08:34:38;;;;;;;82.22;37.67;;;5.80;99.90;;;;;;5072672;28;20047;-71
2022/01/24 08:37:04;;;;;;;84.28;38.40;;;5.80;99.90;;;;;;5054582;28;20056;-70
2022/01/24 08:39:30;;;;;;;85.57;37.55;;;5.80;99.90;;;;;;5052672;28;20044;-70
2022/01/24 08:45:40;;;;;;;81.57;36.80;;;5.80;99.90;;;;;;5071873;28;20531;-70
2022/01/24 08:47:06;;;;;;;81.43;36.60;;;5.80;99.90;;;;;;5053722;28;20054;-72
2022/01/24 08:49:32;;;;;;;80.43;36.38;;;5.80;99.90;;;;;;5071531;28;20044;-71
2022/01/24 08:51:59;;;;;;;78.38;37.33;;;5.80;99.90;;;;;;5053823;28;20040;-71
2022/01/24 08:54:26;;;;;;;82.25;37.47;;;5.80;99.90;;;;;;5084357;28;20115;-67
2022/01/24 08:56:52;;;;;;;82.95;37.83;;;5.80;99.90;;;;;;5092705;28;20115;-67
2022/01/24 08:59:18;;;;;;;75.18;37.80;;;5.80;99.90;;;;;;5092605;28;20044;-69
2022/01/24 09:01:46;;;;;;;77.05;37.13;;;5.80;99.90;;;;;;5092212;28;20040;-69
2022/01/24 09:04:12;;;;;;;72.18;36.22;;;5.80;99.90;;;;;;5092212;28;20079;-69
2022/01/24 09:06:38;;;;;;;75.88;35.50;;;5.90;99.90;;;;;;5092552;28;20469;-69
2022/01/24 09:09:04;;;;;;;66.90;32.58;;;5.90;99.90;;;;;;5092586;28;20054;-69
2022/01/24 09:11:34;;;;;;;69.05;34.00;;;5.80;99.90;;;;;;5092633;28;20113;-69
2022/01/24 09:14:00;;;;;;;66.00;33.13;;;5.90;99.90;;;;;;5092137;28;20046;-69
2022/01/24 09:16:26;;;;;;;70.47;34.22;;;5.90;99.90;;;;;;5074691;28;20123;-67
2022/01/24 09:18:53;;;;;;;65.90;33.35;;;5.80;99.90;;;;;;5092564;28;20086;-67
2022/01/24 09:21:19;;;;;;;71.07;34.92;;;5.90;99.90;;;;;;5092522;28;20039;-68
2022/01/24 09:23:45;;;;;;;61.88;32.38;;;6.00;99.90;;;;;;5057386;28;20044;-67
2022/01/24 09:26:11;;;;;;;68.20;33.85;;;6.00;99.90;;;;;;5092442;28;20032;-68
2022/01/24 09:28:37;;;;;;;64.38;33.45;;;6.00;99.90;;;;;;5091257;28;20067;-67
2022/01/24 09:31:03;;;;;;;59.58;30.42;;;5.90;99.90;;;;;;5092197;28;20057;-67
2022/01/24 09:33:29;;;;;;;60.83;32.55;;;5.90;99.90;;;;;;5073823;28;20538;-67
2022/01/24 09:35:59;;;;;;;57.92;32.33;;;6.00;99.90;;;;;;5092467;28;20047;-67
2022/01/24 09:38:31;;;;;;;63.38;34.30;;;6.00;99.90;;;;;;5092315;28;20052;-67
2022/01/24 09:40:58;;;;;;;68.57;33.63;;;6.00;99.90;;;;;;5074993;28;20543;-67
2022/01/24 09:43:24;;;;;;;64.43;32.60;;;6.00;99.90;;;;;;5091835;28;20415;-68
2022/01/24 09:45:50;;;;;;;61.95;33.05;;;6.00;99.90;;;;;;5092035;28;20048;-68
2022/01/24 09:48:16;;;;;;;59.80;32.85;;;6.00;99.90;;;;;;5092139;28;20043;-68
2022/01/24 09:50:43;;;;;;;61.45;34.35;;;6.00;99.90;;;;;;5092125;28;20044;-68
2022/01/24 09:53:09;;;;;;;62.17;32.95;;;6.00;99.90;;;;;;5091670;28;20516;-67
2022/01/24 09:55:34;;;;;;;64.45;33.53;;;6.10;99.90;;;;;;5091746;28;20052;-67
2022/01/24 09:58:00;;;;;;;59.35;32.35;;;6.10;99.90;;;;;;5091824;28;20446;-67
2022/01/24 10:00:27;;;;;;;63.33;33.85;;;6.00;99.90;;;;;;5091754;28;20040;-67
2022/01/24 10:02:54;;;;;;;66.53;35.10;;;6.10;99.90;;;;;;5091199;28;20048;-67
2022/01/24 10:05:25;;;;;;;63.75;34.00;;;6.10;99.90;;;;;;5091683;28;20032;-67
2022/01/24 10:07:57;;;;;;;66.65;33.50;;;6.10;99.90;;;;;;5091730;28;20080;-68
2022/01/24 10:10:38;;;;;;;69.60;34.85;;;6.10;99.90;;;;;;5091433;28;20048;-67
2022/01/24 10:16:28;;;;;;;60.22;32.20;;;6.00;99.90;;;;;;5091749;28;20044;-67
2022/01/24 10:19:16;;;;;;;64.22;33.78;;;6.00;99.90;;;;;;5091458;28;20460;-66
2022/01/24 10:21:49;;;;;;;64.32;34.00;;;6.00;99.90;;;;;;5091352;28;20048;-66
2022/01/24 10:24:38;;;;;;;61.60;32.28;;;6.00;99.90;;;;;;5073593;28;20046;-66
2022/01/24 10:27:15;;;;;;;58.53;33.08;;;6.00;99.90;;;;;;5091547;28;20118;-67
2022/01/24 10:29:49;;;;;;;62.55;33.53;;;6.10;99.90;;;;;;5091608;28;20040;-67
2022/01/24 10:32:33;;;;;;;60.72;31.90;;;6.10;99.90;;;;;;5091141;28;20531;-67
2022/01/24 10:35:25;;;;;;;63.83;32.97;;;6.10;99.90;;;;;;5073278;28;20122;-67
2022/01/24 10:38:12;;;;;;;58.78;32.67;;;6.00;99.90;;;;;;5091213;28;20405;-66
2022/01/24 10:40:54;;;;;;;58.20;31.65;;;6.10;99.90;;;;;;5091523;28;20044;-67
2022/01/24 10:43:27;;;;;;;64.18;31.80;;;6.10;99.90;;;;;;5091127;28;20036;-67
2022/01/24 10:45:55;;;;;;;56.78;31.23;;;6.10;99.90;;;;;;5091281;28;20424;-66
2022/01/24 10:48:30;;;;;;;59.53;30.38;;;6.10;99.90;;;;;;5091143;28;20389;-67
2022/01/24 10:51:14;;;;;;;58.03;31.42;;;6.00;99.90;;;;;;5091130;28;20040;-67
2022/01/24 10:53:55;;;;;;;62.80;31.83;;;6.00;99.90;;;;;;5072647;28;20051;-66
2022/01/24 10:56:47;;;;;;;55.45;30.52;;;6.10;99.90;;;;;;5091126;28;20036;-67
2022/01/24 10:59:17;;;;;;;62.30;32.13;;;6.10;99.90;;;;;;5087248;28;20056;-67
2022/01/24 11:01:50;;;;;;;54.88;29.73;;;6.00;99.90;;;;;;5080273;28;20410;-67
2022/01/24 11:04:16;;;;;;;57.53;30.63;;;6.00;99.90;;;;;;5052391;28;20409;-67
2022/01/24 11:06:47;;;;;;;55.13;31.65;;;6.00;99.90;;;;;;5070394;28;20032;-67
2022/01/24 11:09:19;;;;;;;59.70;32.00;;;6.00;99.90;;;;;;5071131;28;20178;-67
2022/01/24 11:11:46;;;;;;;62.38;33.38;;;6.10;99.90;;;;;;5080929;28;20028;-67
2022/01/24 11:14:16;;;;;;;56.38;31.25;;;6.10;99.90;;;;;;5090889;28;20047;-67
2022/01/24 11:16:43;;;;;;;55.72;28.83;;;6.10;99.90;;;;;;5052632;28;20185;-67
2022/01/24 11:19:15;;;;;;;50.83;28.95;;;5.90;99.90;;;;;;5070364;28;20075;-67
2022/01/24 11:21:43;;;;;;;52.80;29.38;;;6.00;99.90;;;;;;5087038;28;20124;-67
2022/01/24 11:24:10;;;;;;;53.00;28.52;;;6.00;99.90;;;;;;5090597;28;20071;-67
2022/01/24 11:26:36;;;;;;;52.50;28.40;;;5.90;99.90;;;;;;5094570;28;20043;-68
2022/01/24 11:29:04;;;;;;;51.47;29.52;;;5.90;99.90;;;;;;5077050;28;20044;-67
2022/01/24 11:31:43;;;;;;;45.75;27.58;;;6.00;99.90;;;;;;5082857;28;20081;-68
2022/01/24 11:34:30;;;;;;;52.38;27.73;;;6.00;99.90;;;;;;5080849;28;20032;-68
2022/01/24 11:36:56;;;;;;;49.03;27.90;;;6.00;99.90;;;;;;5070524;28;20037;-67
2022/01/24 11:39:22;;;;;;;47.25;26.83;;;6.00;99.90;;;;;;5075458;28;20060;-67
2022/01/24 11:41:49;;;;;;;40.28;24.08;;;6.00;99.90;;;;;;5074687;28;20404;-67
2022/01/24 11:44:17;;;;;;;44.13;27.50;;;6.00;99.90;;;;;;5073317;28;20511;-67
2022/01/24 11:46:48;;;;;;;47.25;27.23;;;6.00;99.90;;;;;;5055402;28;20044;-68
2022/01/24 11:49:33;;;;;;;43.30;26.58;;;6.00;99.90;;;;;;5073551;28;20048;-67
2022/01/24 11:52:14;;;;;;;42.95;25.38;;;6.00;99.90;;;;;;5082893;28;20072;-67
2022/01/24 11:57:49;;;;;;;40.22;23.70;;;6.00;99.90;;;;;;5079124;28;20087;-67
2022/01/24 12:00:16;;;;;;;41.92;25.48;;;6.00;99.90;;;;;;5073580;28;20419;-67
2022/01/24 12:02:58;;;;;;;43.55;26.17;;;6.00;99.90;;;;;;5073237;28;20040;-67
2022/01/24 12:05:45;;;;;;;44.23;26.90;;;6.00;99.90;;;;;;5073221;28;20032;-67
2022/01/24 12:08:26;;;;;;;46.67;27.30;;;6.10;99.90;;;;;;5073445;28;20281;-67
2022/01/24 12:10:58;;;;;;;47.97;27.17;;;6.10;99.90;;;;;;5073268;28;20048;-67
2022/01/24 12:13:31;;;;;;;45.95;25.33;;;6.10;99.90;;;;;;5072896;28;20032;-67
2022/01/24 12:16:02;;;;;;;42.30;25.00;;;6.10;99.90;;;;;;5072803;28;20086;-69
2022/01/24 12:18:28;;;;;;;40.33;25.77;;;6.10;99.90;;;;;;5055303;28;20048;-66
2022/01/24 12:21:00;;;;;;;43.25;26.52;;;6.10;99.90;;;;;;5073126;28;20049;-67
2022/01/24 12:23:32;;;;;;;39.25;24.05;;;6.10;99.90;;;;;;5072933;28;20055;-68
2022/01/24 12:26:07;;;;;;;44.55;26.70;;;6.10;99.90;;;;;;5073320;28;20562;-68
2022/01/24 12:28:41;;;;;;;43.72;27.27;;;6.10;99.90;;;;;;5073480;28;20447;-68
2022/01/24 12:31:25;;;;;;;47.10;27.23;;;6.00;99.90;;;;;;5073340;28;20517;-67
2022/01/24 12:34:08;;;;;;;47.92;27.95;;;6.10;99.90;;;;;;5072873;28;20428;-68
2022/01/24 12:36:50;;;;;;;51.72;28.88;;;6.10;99.90;;;;;;5072266;28;20040;-68
2022/01/24 12:39:26;;;;;;;45.55;29.17;;;6.10;99.90;;;;;;5055302;28;20048;-68
2022/01/24 12:42:07;;;;;;;45.13;28.60;;;6.10;99.90;;;;;;5072614;28;20488;-68
2022/01/24 12:47:07;;;;;;;42.25;26.90;;;6.10;99.90;;;;;;5073084;28;20564;-68
2022/01/24 12:49:33;;;;;;;40.50;26.65;;;6.10;99.90;;;;;;5072998;28;20465;-67
2022/01/24 12:52:09;;;;;;;45.22;26.75;;;6.10;99.90;;;;;;5072589;28;20082;-68
2022/01/24 12:54:38;;;;;;;43.80;28.17;;;6.10;99.90;;;;;;5072808;28;20044;-67
2022/01/24 12:57:07;;;;;;;40.90;28.33;;;6.00;99.90;;;;;;5072652;28;20412;-67
2022/01/24 12:59:33;;;;;;;44.75;28.17;;;6.10;99.90;;;;;;5072434;28;20079;-68
2022/01/24 13:02:02;;;;;;;38.45;26.52;;;6.00;99.90;;;;;;5072380;28;20392;-68
2022/01/24 13:05:01;;;;;;;43.63;28.65;;;6.00;99.90;;;;;;5037987;28;20040;-67
2022/01/24 13:07:30;;;;;;;45.80;29.55;;;6.00;99.90;;;;;;5054718;28;20611;-68
2022/01/24 13:10:04;;;;;;;43.95;27.77;;;6.00;99.90;;;;;;5072127;28;20554;-67
2022/01/24 13:12:29;;;;;;;43.67;28.70;;;6.00;99.90;;;;;;5072179;28;20439;-67
2022/01/24 13:14:59;;;;;;;41.65;27.58;;;5.90;99.90;;;;;;5072355;28;20119;-67
2022/01/24 13:23:05;;;;;;;37.60;26.45;;;6.00;99.90;;;;;;5071930;28;20048;-68
2022/01/24 13:25:36;;;;;;;41.83;27.77;;;6.10;99.90;;;;;;5054382;28;20110;-67
2022/01/24 13:28:18;;;;;;;42.42;27.05;;;6.00;99.90;;;;;;5053997;28;20048;-66
2022/01/24 13:30:47;;;;;;;37.78;24.83;;;6.00;99.90;;;;;;5071926;28;20067;-66
2022/01/24 13:33:22;;;;;;;35.50;23.60;;;6.00;99.90;;;;;;5071720;28;20063;-66
2022/01/24 13:35:49;;;;;;;45.15;27.40;;;6.10;99.90;;;;;;5072097;28;20041;-70
2022/01/24 13:38:25;;;;;;;47.55;26.83;;;6.00;99.90;;;;;;5072089;28;20040;-70
2022/01/24 13:41:12;;;;;;;40.45;26.15;;;6.10;99.90;;;;;;5053987;28;20068;-70
2022/01/24 13:44:00;;;;;;;37.17;24.48;;;6.10;99.90;;;;;;5071465;28;20074;-68
2022/01/24 13:46:41;;;;;;;50.22;28.38;;;6.10;99.90;;;;;;5061902;28;20040;-68
2022/01/24 13:49:11;;;;;;;31.40;21.58;;;6.10;99.90;;;;;;5049512;28;20136;-68
2022/01/24 13:51:47;;;;;;;33.95;21.70;;;6.00;99.90;;;;;;5050492;28;20072;-68
2022/01/24 13:54:24;;;;;;;33.15;21.33;;;6.00;99.90;;;;;;5050621;28;20040;-67
2022/01/24 13:56:58;;;;;;;41.42;25.92;;;6.00;99.90;;;;;;5050658;28;20095;-67
2022/01/24 13:59:28;;;;;;;37.03;23.65;;;6.10;99.90;;;;;;5050725;28;20770;-67
2022/01/24 14:02:03;;;;;;;38.33;23.77;;;6.20;99.90;;;;;;5055253;28;20573;-67
2022/01/24 14:04:32;;;;;;;37.55;24.98;;;6.10;99.90;;;;;;5068625;28;20036;-67
2022/01/24 14:07:09;;;;;;;34.58;22.67;;;6.10;99.90;;;;;;5070797;28;20193;-68
2022/01/24 14:09:40;;;;;;;37.90;23.20;;;6.10;99.90;;;;;;5070632;28;20512;-67
2022/01/24 14:12:15;;;;;;;45.55;23.42;;;6.10;99.90;;;;;;5070748;28;20458;-68
2022/01/24 14:14:52;;;;;;;41.22;23.05;;;6.10;99.90;;;;;;5070395;28;20040;-67
2022/01/24 14:19:54;;;;;;;38.88;22.08;;;6.00;99.90;;;;;;5070356;28;20059;-68
2022/01/24 14:22:20;;;;;;;36.15;23.25;;;6.00;99.90;;;;;;5066439;28;20106;-69
2022/01/24 14:24:50;;;;;;;38.88;24.23;;;5.90;99.90;;;;;;5065302;28;20060;-69
2022/01/24 14:27:40;;;;;;;38.05;23.75;;;6.00;99.90;;;;;;5070177;28;20048;-69
2022/01/24 14:30:13;;;;;;;34.13;23.23;;;6.00;99.90;;;;;;5070602;28;20033;-67
2022/01/24 14:33:03;;;;;;;36.80;22.67;;;6.00;99.90;;;;;;5072503;28;20055;-68
2022/01/24 14:35:33;;;;;;;35.10;22.17;;;5.90;99.90;;;;;;5054494;28;20032;-68
2022/01/24 14:37:59;;;;;;;37.63;24.15;;;5.90;99.90;;;;;;5049661;28;20175;-67